sensor_id;sensor_type;location;lat;lon;timestamp;pressure;altitude;pressure_sealevel;temperature;humidity
19827;BME280;10074;52.018;4.726;2023-02-12T00:03:37;46261.34;;;-144.79;100.00
19827;BME280;10074;52.018;4.726;2023-02-12T00:08:38;46261.34;;;-144.79;100.00
19827;BME280;10074;52.018;4.726;2023-02-12T00:13:39;46263.38;;;-144.79;100.00
19827;BME280;10074;52.018;4.726;2023-02-12T00:18:39;46263.38;;;-144.79;100.00
19827;BME280;10074;52.018;4.726;2023-02-12T00:23:40;46263.38;;;-144.79;100.00
19827;BME280;10074;52.018;4.726;2023-02-12T00:28:41;46257.34;;;-144.79;100.00
19827;BME280;10074;52.018;4.726;2023-02-12T00:33:42;46261.34;;;-144.79;100.00
19827;BME280;10074;52.018;4.726;2023-02-12T00:38:43;46273.38;;;-144.79;100.00
19827;BME280;10074;52.018;4.726;2023-02-12T00:43:43;46263.38;;;-144.79;100.00
19827;BME280;10074;52.018;4.726;2023-02-12T00:48:44;46271.38;;;-144.79;100.00
19827;BME280;10074;52.018;4.726;2023-02-12T00:53:44;46259.34;;;-144.79;100.00
19827;BME280;10074;52.018;4.726;2023-02-12T00:58:45;46257.34;;;-144.79;100.00
19827;BME280;10074;52.018;4.726;2023-02-12T01:03:45;46269.38;;;-144.79;100.00
19827;BME280;10074;52.018;4.726;2023-02-12T01:08:49;46265.38;;;-144.79;100.00
19827;BME280;10074;52.018;4.726;2023-02-12T01:13:50;46265.38;;;-144.79;100.00
19827;BME280;10074;52.018;4.726;2023-02-12T01:18:52;46277.41;;;-144.79;100.00
19827;BME280;10074;52.018;4.726;2023-02-12T01:23:52;46267.38;;;-144.79;100.00
19827;BME280;10074;52.018;4.726;2023-02-12T01:28:55;46259.34;;;-144.79;100.00
19827;BME280;10074;52.018;4.726;2023-02-12T01:33:58;46257.34;;;-144.79;100.00
19827;BME280;10074;52.018;4.726;2023-02-12T01:38:58;46261.34;;;-144.79;100.00
19827;BME280;10074;52.018;4.726;2023-02-12T01:44:15;46259.34;;;-144.79;100.00
19827;BME280;10074;52.018;4.726;2023-02-12T01:49:22;46265.38;;;-144.79;100.00
19827;BME280;10074;52.018;4.726;2023-02-12T01:54:25;46259.34;;;-144.79;100.00
19827;BME280;10074;52.018;4.726;2023-02-12T01:59:26;46257.34;;;-144.79;100.00
19827;BME280;10074;52.018;4.726;2023-02-12T02:04:29;46263.38;;;-144.79;100.00
19827;BME280;10074;52.018;4.726;2023-02-12T02:09:34;46269.38;;;-144.79;100.00
19827;BME280;10074;52.018;4.726;2023-02-12T02:14:36;46271.38;;;-144.79;100.00
19827;BME280;10074;52.018;4.726;2023-02-12T02:35:38;46271.38;;;-144.79;100.00
19827;BME280;10074;52.018;4.726;2023-02-12T02:40:49;46273.38;;;-144.79;100.00
19827;BME280;10074;52.018;4.726;2023-02-12T02:45:55;46253.34;;;-144.79;100.00
19827;BME280;10074;52.018;4.726;2023-02-12T02:51:03;46273.38;;;-144.79;100.00
19827;BME280;10074;52.018;4.726;2023-02-12T02:56:08;46275.41;;;-144.79;100.00
19827;BME280;10074;52.018;4.726;2023-02-12T03:01:19;46275.41;;;-144.79;100.00
19827;BME280;10074;52.018;4.726;2023-02-12T03:11:32;46265.38;;;-144.79;100.00
19827;BME280;10074;52.018;4.726;2023-02-12T03:16:49;46265.38;;;-144.79;100.00
19827;BME280;10074;52.018;4.726;2023-02-12T03:27:13;46267.38;;;-144.79;100.00
19827;BME280;10074;52.018;4.726;2023-02-12T03:33:05;46265.38;;;-144.79;100.00
19827;BME280;10074;52.018;4.726;2023-02-12T03:37:57;46271.38;;;-144.79;100.00
19827;BME280;10074;52.018;4.726;2023-02-12T03:43:22;46265.38;;;-144.79;100.00
19827;BME280;10074;52.018;4.726;2023-02-12T03:48:44;46267.38;;;-144.79;100.00
19827;BME280;10074;52.018;4.726;2023-02-12T03:53:46;46265.38;;;-144.79;100.00
19827;BME280;10074;52.018;4.726;2023-02-12T03:58:47;46271.38;;;-144.79;100.00
19827;BME280;10074;52.018;4.726;2023-02-12T04:03:47;46265.38;;;-144.79;100.00
19827;BME280;10074;52.018;4.726;2023-02-12T04:08:48;46267.38;;;-144.79;100.00
19827;BME280;10074;52.018;4.726;2023-02-12T04:19:14;46267.38;;;-144.79;100.00
19827;BME280;10074;52.018;4.726;2023-02-12T04:24:27;46263.38;;;-144.79;100.00
19827;BME280;10074;52.018;4.726;2023-02-12T04:40:32;46267.38;;;-144.79;100.00
19827;BME280;10074;52.018;4.726;2023-02-12T04:45:34;46263.38;;;-144.79;100.00
19827;BME280;10074;52.018;4.726;2023-02-12T04:50:40;46269.38;;;-144.79;100.00
19827;BME280;10074;52.018;4.726;2023-02-12T04:55:41;46271.38;;;-144.79;100.00
19827;BME280;10074;52.018;4.726;2023-02-12T05:00:41;46263.38;;;-144.79;100.00
19827;BME280;10074;52.018;4.726;2023-02-12T05:05:42;46265.38;;;-144.79;100.00
19827;BME280;10074;52.018;4.726;2023-02-12T05:10:42;46275.41;;;-144.79;100.00
19827;BME280;10074;52.018;4.726;2023-02-12T05:15:42;46261.34;;;-144.79;100.00
19827;BME280;10074;52.018;4.726;2023-02-12T05:20:43;46267.38;;;-144.79;100.00
19827;BME280;10074;52.018;4.726;2023-02-12T05:25:43;46261.34;;;-144.79;100.00
19827;BME280;10074;52.018;4.726;2023-02-12T05:30:44;46273.38;;;-144.79;100.00
19827;BME280;10074;52.018;4.726;2023-02-12T05:35:44;46263.38;;;-144.79;100.00
19827;BME280;10074;52.018;4.726;2023-02-12T05:40:44;46275.41;;;-144.79;100.00
19827;BME280;10074;52.018;4.726;2023-02-12T05:45:45;46267.38;;;-144.79;100.00
19827;BME280;10074;52.018;4.726;2023-02-12T05:50:45;46275.41;;;-144.79;100.00
19827;BME280;10074;52.018;4.726;2023-02-12T05:55:46;46263.38;;;-144.79;100.00
19827;BME280;10074;52.018;4.726;2023-02-12T06:00:46;46275.41;;;-144.79;100.00
19827;BME280;10074;52.018;4.726;2023-02-12T06:05:50;46271.38;;;-144.79;100.00
19827;BME280;10074;52.018;4.726;2023-02-12T06:10:50;46267.38;;;-144.79;100.00
19827;BME280;10074;52.018;4.726;2023-02-12T06:15:51;46265.38;;;-144.79;100.00
19827;BME280;10074;52.018;4.726;2023-02-12T06:20:51;46265.38;;;-144.79;100.00
19827;BME280;10074;52.018;4.726;2023-02-12T06:25:55;46267.38;;;-144.79;100.00
19827;BME280;10074;52.018;4.726;2023-02-12T06:30:56;46271.38;;;-144.79;100.00
19827;BME280;10074;52.018;4.726;2023-02-12T06:35:56;46267.38;;;-144.79;100.00
19827;BME280;10074;52.018;4.726;2023-02-12T06:41:00;46267.38;;;-144.79;100.00
19827;BME280;10074;52.018;4.726;2023-02-12T06:46:01;46263.38;;;-144.79;100.00
19827;BME280;10074;52.018;4.726;2023-02-12T06:51:07;46261.34;;;-144.79;100.00
19827;BME280;10074;52.018;4.726;2023-02-12T06:56:10;46273.38;;;-144.79;100.00
19827;BME280;10074;52.018;4.726;2023-02-12T07:01:18;46267.38;;;-144.79;100.00
19827;BME280;10074;52.018;4.726;2023-02-12T07:06:19;46267.38;;;-144.79;100.00
19827;BME280;10074;52.018;4.726;2023-02-12T07:11:25;46267.38;;;-144.79;100.00
19827;BME280;10074;52.018;4.726;2023-02-12T07:16:25;46259.34;;;-144.79;100.00
19827;BME280;10074;52.018;4.726;2023-02-12T07:21:26;46263.38;;;-144.79;100.00
19827;BME280;10074;52.018;4.726;2023-02-12T07:26:27;46275.41;;;-144.79;100.00
19827;BME280;10074;52.018;4.726;2023-02-12T07:31:27;46277.41;;;-144.79;100.00
19827;BME280;10074;52.018;4.726;2023-02-12T07:36:30;46269.38;;;-144.79;100.00
19827;BME280;10074;52.018;4.726;2023-02-12T07:41:33;46261.34;;;-144.79;100.00
19827;BME280;10074;52.018;4.726;2023-02-12T07:46:37;46267.38;;;-144.79;100.00
19827;BME280;10074;52.018;4.726;2023-02-12T07:51:37;46271.38;;;-144.79;100.00
19827;BME280;10074;52.018;4.726;2023-02-12T07:56:39;46263.38;;;-144.79;100.00
19827;BME280;10074;52.018;4.726;2023-02-12T08:01:46;46265.38;;;-144.79;100.00
19827;BME280;10074;52.018;4.726;2023-02-12T08:06:49;46271.38;;;-144.79;100.00
19827;BME280;10074;52.018;4.726;2023-02-12T08:11:51;46261.34;;;-144.79;100.00
19827;BME280;10074;52.018;4.726;2023-02-12T08:16:51;46279.41;;;-144.79;100.00
19827;BME280;10074;52.018;4.726;2023-02-12T08:21:53;46277.41;;;-144.79;100.00
19827;BME280;10074;52.018;4.726;2023-02-12T08:26:53;46265.38;;;-144.79;100.00
19827;BME280;10074;52.018;4.726;2023-02-12T08:31:59;46269.38;;;-144.79;100.00
19827;BME280;10074;52.018;4.726;2023-02-12T08:37:00;46273.38;;;-144.79;100.00
19827;BME280;10074;52.018;4.726;2023-02-12T08:42:01;46267.38;;;-144.79;100.00
19827;BME280;10074;52.018;4.726;2023-02-12T08:47:01;46273.38;;;-144.79;100.00
19827;BME280;10074;52.018;4.726;2023-02-12T08:52:02;46267.38;;;-144.79;100.00
19827;BME280;10074;52.018;4.726;2023-02-12T08:57:02;46265.38;;;-144.79;100.00
19827;BME280;10074;52.018;4.726;2023-02-12T09:02:03;46275.41;;;-144.79;100.00
19827;BME280;10074;52.018;4.726;2023-02-12T09:07:07;46271.38;;;-144.79;100.00
19827;BME280;10074;52.018;4.726;2023-02-12T09:12:07;46271.38;;;-144.79;100.00
19827;BME280;10074;52.018;4.726;2023-02-12T09:17:08;46267.38;;;-144.79;100.00
19827;BME280;10074;52.018;4.726;2023-02-12T09:22:08;46267.38;;;-144.79;100.00
19827;BME280;10074;52.018;4.726;2023-02-12T09:27:09;46265.38;;;-144.79;100.00
19827;BME280;10074;52.018;4.726;2023-02-12T09:32:09;46271.38;;;-144.79;100.00
19827;BME280;10074;52.018;4.726;2023-02-12T09:37:09;46275.41;;;-144.79;100.00
19827;BME280;10074;52.018;4.726;2023-02-12T09:42:36;46267.38;;;-144.79;100.00
19827;BME280;10074;52.018;4.726;2023-02-12T09:47:45;46265.38;;;-144.79;100.00
19827;BME280;10074;52.018;4.726;2023-02-12T09:52:49;46271.38;;;-144.79;100.00
19827;BME280;10074;52.018;4.726;2023-02-12T09:57:50;46267.38;;;-144.79;100.00
19827;BME280;10074;52.018;4.726;2023-02-12T10:02:52;46269.38;;;-144.79;100.00
19827;BME280;10074;52.018;4.726;2023-02-12T10:08:23;46263.38;;;-144.79;100.00
19827;BME280;10074;52.018;4.726;2023-02-12T10:13:35;46267.38;;;-144.79;100.00
19827;BME280;10074;52.018;4.726;2023-02-12T10:18:53;46273.38;;;-144.79;100.00
19827;BME280;10074;52.018;4.726;2023-02-12T10:29:47;46263.38;;;-144.79;100.00
19827;BME280;10074;52.018;4.726;2023-02-12T10:34:49;46275.41;;;-144.79;100.00
19827;BME280;10074;52.018;4.726;2023-02-12T10:39:55;46267.38;;;-144.79;100.00
19827;BME280;10074;52.018;4.726;2023-02-12T10:44:57;46267.38;;;-144.79;100.00
19827;BME280;10074;52.018;4.726;2023-02-12T10:50:00;46267.38;;;-144.79;100.00
19827;BME280;10074;52.018;4.726;2023-02-12T10:55:00;46267.38;;;-144.79;100.00
19827;BME280;10074;52.018;4.726;2023-02-12T11:05:26;46263.38;;;-144.79;100.00
19827;BME280;10074;52.018;4.726;2023-02-12T11:10:36;46265.38;;;-144.79;100.00
19827;BME280;10074;52.018;4.726;2023-02-12T11:15:46;46275.41;;;-144.79;100.00
19827;BME280;10074;52.018;4.726;2023-02-12T11:21:11;46275.41;;;-144.79;100.00
19827;BME280;10074;52.018;4.726;2023-02-12T11:31:58;46269.38;;;-144.79;100.00
19827;BME280;10074;52.018;4.726;2023-02-12T11:36:59;46271.38;;;-144.79;100.00
19827;BME280;10074;52.018;4.726;2023-02-12T11:42:29;46269.38;;;-144.79;100.00
19827;BME280;10074;52.018;4.726;2023-02-12T11:47:35;46275.41;;;-144.79;100.00
19827;BME280;10074;52.018;4.726;2023-02-12T11:52:39;46273.38;;;-144.79;100.00
19827;BME280;10074;52.018;4.726;2023-02-12T11:57:49;46267.38;;;-144.79;100.00
19827;BME280;10074;52.018;4.726;2023-02-12T12:02:57;46269.38;;;-144.79;100.00
19827;BME280;10074;52.018;4.726;2023-02-12T12:08:06;46267.38;;;-144.79;100.00
19827;BME280;10074;52.018;4.726;2023-02-12T12:13:14;46269.38;;;-144.79;100.00
19827;BME280;10074;52.018;4.726;2023-02-12T12:24:09;46267.38;;;-144.79;100.00
19827;BME280;10074;52.018;4.726;2023-02-12T12:29:20;46269.38;;;-144.79;100.00
19827;BME280;10074;52.018;4.726;2023-02-12T12:34:23;46273.38;;;-144.79;100.00
19827;BME280;10074;52.018;4.726;2023-02-12T12:51:01;46275.41;;;-144.79;100.00
19827;BME280;10074;52.018;4.726;2023-02-12T13:01:14;46273.38;;;-144.79;100.00
19827;BME280;10074;52.018;4.726;2023-02-12T13:11:46;46269.38;;;-144.79;100.00
19827;BME280;10074;52.018;4.726;2023-02-12T13:17:03;46265.38;;;-144.79;100.00
19827;BME280;10074;52.018;4.726;2023-02-12T13:27:35;46265.38;;;-144.79;100.00
19827;BME280;10074;52.018;4.726;2023-02-12T13:32:41;46279.41;;;-144.79;100.00
19827;BME280;10074;52.018;4.726;2023-02-12T13:37:46;46279.41;;;-144.79;100.00
19827;BME280;10074;52.018;4.726;2023-02-12T13:43:00;46271.38;;;-144.79;100.00
19827;BME280;10074;52.018;4.726;2023-02-12T14:03:37;46271.38;;;-144.79;100.00
19827;BME280;10074;52.018;4.726;2023-02-12T14:08:41;46267.38;;;-144.79;100.00
19827;BME280;10074;52.018;4.726;2023-02-12T14:14:05;46275.41;;;-144.79;100.00
19827;BME280;10074;52.018;4.726;2023-02-12T14:24:47;46269.38;;;-144.79;100.00
19827;BME280;10074;52.018;4.726;2023-02-12T14:35:35;46263.38;;;-144.79;100.00
19827;BME280;10074;52.018;4.726;2023-02-12T14:40:38;46267.38;;;-144.79;100.00
19827;BME280;10074;52.018;4.726;2023-02-12T14:45:41;46269.38;;;-144.79;100.00
19827;BME280;10074;52.018;4.726;2023-02-12T14:50:43;46271.38;;;-144.79;100.00
19827;BME280;10074;52.018;4.726;2023-02-12T14:55:51;46267.38;;;-144.79;100.00
19827;BME280;10074;52.018;4.726;2023-02-12T15:00:56;46275.41;;;-144.79;100.00
19827;BME280;10074;52.018;4.726;2023-02-12T15:06:18;46267.38;;;-144.79;100.00
19827;BME280;10074;52.018;4.726;2023-02-12T15:11:29;46267.38;;;-144.79;100.00
19827;BME280;10074;52.018;4.726;2023-02-12T15:16:44;46269.38;;;-144.79;100.00
19827;BME280;10074;52.018;4.726;2023-02-12T15:21:46;46275.41;;;-144.79;100.00
19827;BME280;10074;52.018;4.726;2023-02-12T15:26:49;46265.38;;;-144.79;100.00
19827;BME280;10074;52.018;4.726;2023-02-12T15:31:56;46267.38;;;-144.79;100.00
19827;BME280;10074;52.018;4.726;2023-02-12T15:36:58;46279.41;;;-144.79;100.00
19827;BME280;10074;52.018;4.726;2023-02-12T15:42:00;46277.41;;;-144.79;100.00
19827;BME280;10074;52.018;4.726;2023-02-12T15:47:08;46275.41;;;-144.79;100.00
19827;BME280;10074;52.018;4.726;2023-02-12T15:52:20;46273.38;;;-144.79;100.00
19827;BME280;10074;52.018;4.726;2023-02-12T15:57:22;46275.41;;;-144.79;100.00
19827;BME280;10074;52.018;4.726;2023-02-12T16:02:28;46273.38;;;-144.79;100.00
19827;BME280;10074;52.018;4.726;2023-02-12T16:07:34;46267.38;;;-144.79;100.00
19827;BME280;10074;52.018;4.726;2023-02-12T16:12:35;46271.38;;;-144.79;100.00
19827;BME280;10074;52.018;4.726;2023-02-12T16:17:45;46275.41;;;-144.79;100.00
19827;BME280;10074;52.018;4.726;2023-02-12T16:22:48;46271.38;;;-144.79;100.00
19827;BME280;10074;52.018;4.726;2023-02-12T16:27:59;46283.41;;;-144.79;100.00
19827;BME280;10074;52.018;4.726;2023-02-12T16:33:01;46267.38;;;-144.79;100.00
19827;BME280;10074;52.018;4.726;2023-02-12T16:38:38;46275.41;;;-144.79;100.00
19827;BME280;10074;52.018;4.726;2023-02-12T16:43:39;46271.38;;;-144.79;100.00
19827;BME280;10074;52.018;4.726;2023-02-12T16:48:44;46271.38;;;-144.79;100.00
19827;BME280;10074;52.018;4.726;2023-02-12T16:53:45;46267.38;;;-144.79;100.00
19827;BME280;10074;52.018;4.726;2023-02-12T16:58:52;46263.38;;;-144.79;100.00
19827;BME280;10074;52.018;4.726;2023-02-12T17:03:57;46267.38;;;-144.79;100.00
19827;BME280;10074;52.018;4.726;2023-02-12T17:08:58;46271.38;;;-144.79;100.00
19827;BME280;10074;52.018;4.726;2023-02-12T17:13:59;46279.41;;;-144.79;100.00
19827;BME280;10074;52.018;4.726;2023-02-12T17:18:59;46263.38;;;-144.79;100.00
19827;BME280;10074;52.018;4.726;2023-02-12T17:24:00;46267.38;;;-144.79;100.00
19827;BME280;10074;52.018;4.726;2023-02-12T17:29:00;46265.38;;;-144.79;100.00
19827;BME280;10074;52.018;4.726;2023-02-12T17:34:04;46271.38;;;-144.79;100.00
19827;BME280;10074;52.018;4.726;2023-02-12T17:39:06;46271.38;;;-144.79;100.00
19827;BME280;10074;52.018;4.726;2023-02-12T17:44:07;46267.38;;;-144.79;100.00
19827;BME280;10074;52.018;4.726;2023-02-12T17:49:07;46267.38;;;-144.79;100.00
19827;BME280;10074;52.018;4.726;2023-02-12T17:54:08;46267.38;;;-144.79;100.00
19827;BME280;10074;52.018;4.726;2023-02-12T17:59:09;46275.41;;;-144.79;100.00
19827;BME280;10074;52.018;4.726;2023-02-12T18:04:10;46271.38;;;-144.79;100.00
19827;BME280;10074;52.018;4.726;2023-02-12T18:09:10;46267.38;;;-144.79;100.00
19827;BME280;10074;52.018;4.726;2023-02-12T18:14:11;46279.41;;;-144.79;100.00
19827;BME280;10074;52.018;4.726;2023-02-12T18:19:11;46269.38;;;-144.79;100.00
19827;BME280;10074;52.018;4.726;2023-02-12T18:24:11;46275.41;;;-144.79;100.00
19827;BME280;10074;52.018;4.726;2023-02-12T18:29:12;46271.38;;;-144.79;100.00
19827;BME280;10074;52.018;4.726;2023-02-12T18:34:12;46275.41;;;-144.79;100.00
19827;BME280;10074;52.018;4.726;2023-02-12T18:39:13;46269.38;;;-144.79;100.00
19827;BME280;10074;52.018;4.726;2023-02-12T18:44:14;46267.38;;;-144.79;100.00
19827;BME280;10074;52.018;4.726;2023-02-12T18:49:15;46267.38;;;-144.79;100.00
19827;BME280;10074;52.018;4.726;2023-02-12T18:54:15;46267.38;;;-144.79;100.00
19827;BME280;10074;52.018;4.726;2023-02-12T18:59:16;46271.38;;;-144.79;100.00
19827;BME280;10074;52.018;4.726;2023-02-12T19:04:18;46271.38;;;-144.79;100.00
19827;BME280;10074;52.018;4.726;2023-02-12T19:09:21;46271.38;;;-144.79;100.00
19827;BME280;10074;52.018;4.726;2023-02-12T19:14:24;46271.38;;;-144.79;100.00
19827;BME280;10074;52.018;4.726;2023-02-12T19:19:25;46279.41;;;-144.79;100.00
19827;BME280;10074;52.018;4.726;2023-02-12T19:24:26;46273.38;;;-144.79;100.00
19827;BME280;10074;52.018;4.726;2023-02-12T19:29:26;46267.38;;;-144.79;100.00
19827;BME280;10074;52.018;4.726;2023-02-12T19:34:27;46277.41;;;-144.79;100.00
19827;BME280;10074;52.018;4.726;2023-02-12T19:39:27;46269.38;;;-144.79;100.00
19827;BME280;10074;52.018;4.726;2023-02-12T19:44:28;46255.34;;;-144.79;100.00
19827;BME280;10074;52.018;4.726;2023-02-12T19:49:28;46253.34;;;-144.79;100.00
19827;BME280;10074;52.018;4.726;2023-02-12T19:54:29;46267.38;;;-144.79;100.00
19827;BME280;10074;52.018;4.726;2023-02-12T19:59:29;46249.34;;;-144.79;100.00
19827;BME280;10074;52.018;4.726;2023-02-12T20:04:30;46255.34;;;-144.79;100.00
19827;BME280;10074;52.018;4.726;2023-02-12T20:09:30;46249.34;;;-144.79;100.00
19827;BME280;10074;52.018;4.726;2023-02-12T20:14:31;46245.31;;;-144.79;100.00
19827;BME280;10074;52.018;4.726;2023-02-12T20:19:31;46241.31;;;-144.79;100.00
19827;BME280;10074;52.018;4.726;2023-02-12T20:24:32;46239.31;;;-144.79;100.00
19827;BME280;10074;52.018;4.726;2023-02-12T20:29:33;46231.28;;;-144.79;100.00
19827;BME280;10074;52.018;4.726;2023-02-12T20:34:33;46219.25;;;-144.79;100.00
19827;BME280;10074;52.018;4.726;2023-02-12T20:39:34;46237.31;;;-144.79;100.00
19827;BME280;10074;52.018;4.726;2023-02-12T20:44:34;46229.28;;;-144.79;100.00
19827;BME280;10074;52.018;4.726;2023-02-12T20:49:35;46231.28;;;-144.79;100.00
19827;BME280;10074;52.018;4.726;2023-02-12T20:54:35;46223.25;;;-144.79;100.00
19827;BME280;10074;52.018;4.726;2023-02-12T20:59:37;46223.25;;;-144.79;100.00
19827;BME280;10074;52.018;4.726;2023-02-12T21:04:37;46221.25;;;-144.79;100.00
19827;BME280;10074;52.018;4.726;2023-02-12T21:09:38;46225.28;;;-144.79;100.00
19827;BME280;10074;52.018;4.726;2023-02-12T21:14:38;46245.31;;;-144.79;100.00
19827;BME280;10074;52.018;4.726;2023-02-12T21:19:39;46241.31;;;-144.79;100.00
19827;BME280;10074;52.018;4.726;2023-02-12T21:24:39;46233.28;;;-144.79;100.00
19827;BME280;10074;52.018;4.726;2023-02-12T21:29:40;46259.34;;;-144.79;100.00
19827;BME280;10074;52.018;4.726;2023-02-12T21:34:40;46247.31;;;-144.79;100.00
19827;BME280;10074;52.018;4.726;2023-02-12T21:39:40;46243.31;;;-144.79;100.00
19827;BME280;10074;52.018;4.726;2023-02-12T21:44:41;46255.34;;;-144.79;100.00
19827;BME280;10074;52.018;4.726;2023-02-12T21:49:41;46255.34;;;-144.79;100.00
19827;BME280;10074;52.018;4.726;2023-02-12T21:54:42;46247.31;;;-144.79;100.00
19827;BME280;10074;52.018;4.726;2023-02-12T21:59:42;46257.34;;;-144.79;100.00
19827;BME280;10074;52.018;4.726;2023-02-12T22:04:42;46259.34;;;-144.79;100.00
19827;BME280;10074;52.018;4.726;2023-02-12T22:09:44;46263.38;;;-144.79;100.00
19827;BME280;10074;52.018;4.726;2023-02-12T22:14:44;46263.38;;;-144.79;100.00
19827;BME280;10074;52.018;4.726;2023-02-12T22:19:45;46261.34;;;-144.79;100.00
19827;BME280;10074;52.018;4.726;2023-02-12T22:24:45;46259.34;;;-144.79;100.00
19827;BME280;10074;52.018;4.726;2023-02-12T22:29:46;46263.38;;;-144.79;100.00
19827;BME280;10074;52.018;4.726;2023-02-12T22:34:46;46257.34;;;-144.79;100.00
19827;BME280;10074;52.018;4.726;2023-02-12T22:39:46;46257.34;;;-144.79;100.00
19827;BME280;10074;52.018;4.726;2023-02-12T22:44:47;46259.34;;;-144.79;100.00
19827;BME280;10074;52.018;4.726;2023-02-12T22:49:47;46265.38;;;-144.79;100.00
19827;BME280;10074;52.018;4.726;2023-02-12T22:54:47;46265.38;;;-144.79;100.00
19827;BME280;10074;52.018;4.726;2023-02-12T22:59:48;46259.34;;;-144.79;100.00
19827;BME280;10074;52.018;4.726;2023-02-12T23:04:48;46263.38;;;-144.79;100.00
19827;BME280;10074;52.018;4.726;2023-02-12T23:09:49;46255.34;;;-144.79;100.00
19827;BME280;10074;52.018;4.726;2023-02-12T23:14:49;46251.34;;;-144.79;100.00
19827;BME280;10074;52.018;4.726;2023-02-12T23:19:50;46259.34;;;-144.79;100.00
19827;BME280;10074;52.018;4.726;2023-02-12T23:24:50;46257.34;;;-144.79;100.00
19827;BME280;10074;52.018;4.726;2023-02-12T23:29:51;46263.38;;;-144.79;100.00
19827;BME280;10074;52.018;4.726;2023-02-12T23:34:51;46263.38;;;-144.79;100.00
19827;BME280;10074;52.018;4.726;2023-02-12T23:39:51;46251.34;;;-144.79;100.00
19827;BME280;10074;52.018;4.726;2023-02-12T23:44:52;46263.38;;;-144.79;100.00
19827;BME280;10074;52.018;4.726;2023-02-12T23:49:52;46253.34;;;-144.79;100.00
19827;BME280;10074;52.018;4.726;2023-02-12T23:54:52;46255.34;;;-144.79;100.00
19827;BME280;10074;52.018;4.726;2023-02-12T23:59:53;46253.34;;;-144.79;100.00
